KHRJ

Harnett Regional Jetport Airport

Erwin, North Carolina, USA
METAR KHRJ 101535Z AUTO 36009G14KT 3SM SCT013 BKN020 OVC050 01/01 A3010 RMK AO2 P0001 T00140013 PWINO
Observed Flight Rules
Dec-10 @ 15:35 UTC (44 minutes ago) Marginal Visual Flight Rules
Wind Visibility Clouds
360° at 9 knots
 Gusting to 14 knots
3 miles
  • Scattered at 1,300' AGL
  • Broken at 2,000' AGL
  • Overcast at 5,000' AGL
Temperatures Readings Precipitation
Current 1°C / 34°F
Dewpoint 1°C / 34°F
Humidity 100%
Altimeter 30.1" Hg
Pressure 1019 hPa
Elevation 60
Current Rain 0.01
METAR KHRJ 101535Z AUTO 36009G14KT 3SM SCT013 BKN020 OVC050 01/01 A3010 RMK AO2 P0001 T00140013 PWINO
Observed Flight Rules
Dec-10 @ 15:35 UTC
(44 minutes ago)
MVFR
Wind Visibility
360° at 9 knots
 Gusting to 14 knots
3 miles
Clouds
  • Scattered at 1,300' AGL
  • Broken at 2,000' AGL
  • Overcast at 5,000' AGL
Temperature Dewpoint
1°C / 34°F 1°C / 34°F
Humidity Altimeter Pressure
100% 30.1" Hg 1019 hPa
Current Rain
0.01